• Join FlightAware (Why Join?)
  • Login
  • US Flag 
09:30PM EDT


 

Airport Tracker/Info


-or-


 

Live Flight TrackerFlight Track Log ✈ N97FG ✈ 16-Aug-2013 ✈ MMIO / SLW - KPTK

Flight Track Log - Related Links

Times and Time Zones

All times are in EDT time to prevent confusion due to time zone crossing. See the N97FG flight status page for this flight to view local times or setup timezone preferences in your user account.

Time Position Orientation Groundspeed Altitude Reporting Facility
EDT Latitude Longitude Course Direction KTS MPH feet Rate Location/Type
02:20PM 26.5461 -99.1672 48° Northeast 429 494 29,800  Level Houston Center
02:21PM 26.6264 -99.0672 48° Northeast 431 496 30,500 600 Climbing Houston Center
02:22PM 26.7064 -98.9675 48° Northeast 432 497 31,100 540 Climbing Houston Center
02:23PM 26.8003 -98.8842 38° Northeast 433 498 31,700 540 Climbing Houston Center
02:24PM 26.8994 -98.8092 34° Northeast 433 498 32,300 540 Climbing Houston Center
02:25PM 27.0183 -98.7153 35° Northeast 436 502 32,900 480 Climbing Houston Center
02:26PM 27.1172 -98.6386 35° Northeast 436 502 33,400 480 Climbing Houston Center
02:27PM 27.2169 -98.5611 35° Northeast 438 504 34,000 600 Climbing Houston Center
02:28PM 27.3156 -98.4831 35° Northeast 438 504 34,700 720 Climbing Houston Center
02:29PM 27.4342 -98.3914 34° Northeast 435 501 35,500 720 Climbing Houston Center
02:30PM 27.5328 -98.3142 35° Northeast 434 499 36,300 720 Climbing Houston Center
02:31PM 27.6303 -98.2364 35° Northeast 432 497 37,100 660 Climbing Houston Center
02:32PM 27.7289 -98.1597 35° Northeast 432 497 37,700 600 Climbing Houston Center
02:33PM 27.8272 -98.0828 35° Northeast 432 497 38,400 720 Climbing Houston Center
02:34PM 27.9458 -97.9878 35° Northeast 436 502 39,300 840 Climbing Houston Center
02:35PM 28.0436 -97.9111 35° Northeast 430 495 40,200 720 Climbing Houston Center
02:36PM 28.1408 -97.8342 35° Northeast 428 493 40,900 360 Climbing Houston Center
02:37PM 28.2347 -97.7619 34° Northeast 433 498 41,000  Climbing Houston Center
02:38PM 28.3561 -97.6647 35° Northeast 447 514 41,000  Level Houston Center
02:39PM 28.4592 -97.5822 35° Northeast 452 520 41,000  Level Houston Center
02:40PM 28.5639 -97.4983 35° Northeast 459 528 41,000  Level Houston Center
02:41PM 28.6686 -97.4131 36° Northeast 461 531 41,000  Level Houston Center
02:42PM 28.7744 -97.3292 35° Northeast 461 531 41,000 -60 Level Houston Center
02:43PM 28.8639 -97.2228 46° Northeast 470 541 40,900  Descending Houston Center
02:44PM 28.9664 -97.0844 50° Northeast 474 545 41,000  Climbing Houston Center
02:45PM 29.0519 -96.9706 49° Northeast 475 547 41,000  Level Houston Center
02:46PM 29.1417 -96.8628 46° Northeast 473 544 41,000  Level Houston Center
02:48PM 29.2469 -96.7783 35° Northeast 474 545 41,000  Level Houston Center
02:49PM 29.3775 -96.6797 33° Northeast 480 552 41,000  Level Houston Center
02:50PM 29.4850 -96.5972 34° Northeast 472 543 41,000  Level Houston Center
02:51PM 29.5931 -96.5100 35° Northeast 476 548 41,000  Level Houston Center
02:52PM 29.7006 -96.4247 35° Northeast 473 544 41,000  Level Houston Center
02:53PM 29.8094 -96.3369 35° Northeast 478 550 41,000  Level Houston Center
02:54PM 29.9414 -96.2331 34° Northeast 479 551 41,000  Level Houston Center
02:55PM 30.0517 -96.1447 35° Northeast 483 556 41,000  Level Houston Center
02:56PM 30.1642 -96.0511 36° Northeast 487 560 41,000  Level Houston Center
02:57PM 30.2628 -95.9767 33° Northeast 479 551 41,000  Level Houston Center
02:58PM 30.3944 -95.8692 35° Northeast 481 554 41,000  Level Houston Center
02:59PM 30.5031 -95.7783 36° Northeast 479 551 41,000  Level Houston Center
03:00PM 30.6142 -95.6889 35° Northeast 485 558 41,000  Level Houston Center
03:01PM 30.7353 -95.5897 35° Northeast 494 568 41,000  Level Houston Center
03:02PM 30.8447 -95.4994 35° Northeast 483 556 41,000  Level Houston Center
03:03PM 30.9561 -95.4097 35° Northeast 483 556 41,000  Level Houston Center
03:04PM 31.0669 -95.3181 35° Northeast 485 558 41,000  Level Houston Center
03:05PM 31.1778 -95.2258 35° Northeast 487 560 41,000  Level Houston Center
03:06PM 31.2897 -95.1336 35° Northeast 491 565 41,000  Level Houston Center
03:07PM 31.4025 -95.0400 35° Northeast 488 562 41,000  Level Houston Center
03:08PM 31.5383 -94.9258 36° Northeast 492 566 41,000  Level Houston Center
03:09PM 31.6517 -94.8306 36° Northeast 494 568 41,000  Level Houston Center
03:10PM 31.7642 -94.7353 36° Northeast 495 570 41,000  Level Houston Center
03:11PM 31.8758 -94.6411 36° Northeast 493 567 41,000  Level Houston Center
03:12PM 31.9861 -94.5486 35° Northeast 489 563 41,000  Level Houston Center
03:13PM 32.0964 -94.4547 36° Northeast 487 560 41,000  Level Houston Center
03:14PM 32.2056 -94.3633 35° Northeast 483 556 41,000  Level Houston Center
03:15PM 32.3369 -94.2517 36° Northeast 483 556 41,000  Level Houston Center
03:17PM 32.4589 -94.1389 38° Northeast 481 554 41,000  Level Fort Worth Center
03:18PM 32.5650 -94.0464 36° Northeast 481 554 41,000 60 Level Fort Worth Center
03:19PM 32.6753 -93.9558 35° Northeast 476 548 41,200 300 Climbing Fort Worth Center
03:20PM 32.7814 -93.8653 36° Northeast 476 548 41,700 480 Climbing Fort Worth Center
03:21PM 32.8872 -93.7719 37° Northeast 476 548 42,200 480 Climbing Fort Worth Center
03:22PM 32.9867 -93.6811 37° Northeast 470 541 42,700 360 Climbing Fort Worth Center
03:23PM 33.0925 -93.5900 36° Northeast 465 535 43,000 120 Climbing Fort Worth Center
03:24PM 33.1961 -93.4986 36° Northeast 465 535 43,000  Level Fort Worth Center
03:25PM 33.3039 -93.4069 35° Northeast 465 535 43,000  Level Fort Worth Center
03:26PM 33.4094 -93.3150 36° Northeast 465 535 43,000  Level Fort Worth Center
03:27PM 33.5169 -93.2228 36° Northeast 465 535 43,000  Level Fort Worth Center
03:28PM 33.6861 -93.0758 36° Northeast 464 534 43,000  Level Memphis Center
03:29PM 33.7947 -92.9817 36° Northeast 469 540 43,000  Level Memphis Center
03:30PM 33.9008 -92.8872 36° Northeast 469 540 43,000  Level Memphis Center
03:31PM 34.0092 -92.7903 37° Northeast 469 540 43,000  Level Memphis Center
03:32PM 34.1175 -92.6956 36° Northeast 469 540 43,000  Level Memphis Center
03:33PM 34.2175 -92.5978 39° Northeast 469 540 43,000  Level Memphis Center
03:34PM 34.3256 -92.5000 37° Northeast 469 540 43,000  Level Memphis Center
03:35PM 34.4336 -92.4019 37° Northeast 469 540 43,000  Level Memphis Center
03:36PM 34.5394 -92.3086 36° Northeast 474 545 43,000  Level Memphis Center
03:37PM 34.6453 -92.2100 37° Northeast 474 545 43,000  Level Memphis Center
03:38PM 34.7408 -92.0983 44° Northeast 468 539 43,000  Level Memphis Center
03:39PM 34.8278 -91.9889 46° Northeast 477 549 43,000  Level Memphis Center
03:40PM 34.9231 -91.8692 46° Northeast 482 555 43,000  Level Memphis Center
03:41PM 35.0122 -91.7517 47° Northeast 482 555 43,000  Level Memphis Center
03:42PM 35.1053 -91.6314 47° Northeast 477 549 43,000  Level Memphis Center
03:43PM 35.1981 -91.5108 47° Northeast 477 549 43,000  Level Memphis Center
03:44PM 35.2972 -91.3900 45° Northeast 482 555 43,000  Level Memphis Center
03:45PM 35.3878 -91.2661 48° Northeast 487 560 43,000  Level Memphis Center
03:46PM 35.4911 -91.1372 45° Northeast 487 560 43,000  Level Memphis Center
03:47PM 35.5856 -91.0131 47° Northeast 487 560 43,000  Level Memphis Center
03:48PM 35.6800 -90.8861 47° Northeast 493 567 43,000  Level Memphis Center
03:49PM 35.7658 -90.7639 49° Northeast 483 556 43,000  Level Memphis Center
03:50PM 35.8603 -90.6386 47° Northeast 489 563 43,000  Level Memphis Center
03:51PM 35.9542 -90.5158 47° Northeast 489 563 43,000  Level Memphis Center
03:52PM 36.0481 -90.3928 47° Northeast 489 563 43,000  Level Memphis Center
03:53PM 36.1439 -90.2644 47° Northeast 489 563 43,000  Level Memphis Center
03:54PM 36.2375 -90.1383 47° Northeast 489 563 43,000  Level Memphis Center
03:55PM 36.3208 -90.0272 47° Northeast 489 563 43,000  Level Memphis Center
03:56PM 36.4161 -89.8978 48° Northeast 489 563 43,000  Level Memphis Center
03:57PM 36.5117 -89.7708 47° Northeast 494 568 43,000  Level Memphis Center
03:58PM 36.6089 -89.6383 48° Northeast 500 575 43,000  Level Memphis Center
03:59PM 36.7039 -89.5081 48° Northeast 505 581 43,000  Level Memphis Center
04:00PM 36.7989 -89.3750 48° Northeast 505 581 43,000  Level Memphis Center
04:01PM 36.8914 -89.2442 49° Northeast 505 581 43,000  Level Memphis Center
04:02PM 36.9881 -89.1128 47° Northeast 505 581 43,000  Level Memphis Center
04:03PM 37.0825 -88.9789 48° Northeast 505 581 43,000  Level Memphis Center
04:04PM 37.1789 -88.8469 47° Northeast 505 581 43,000  Level Memphis Center
04:06PM 37.3272 -88.6261 50° Northeast 517 595 43,000  Level Indianapolis Center
04:07PM 37.4169 -88.5019 48° Northeast 515 593 43,000  Level Indianapolis Center
04:08PM 37.5175 -88.3561 49° Northeast 514 592 43,000  Level Indianapolis Center
04:09PM 37.6228 -88.2058 48° Northeast 512 589 43,000  Level Indianapolis Center
04:10PM 37.7164 -88.0714 49° Northeast 506 582 43,000  Level Indianapolis Center
04:11PM 37.8156 -87.9256 49° Northeast 505 581 43,000  Level Indianapolis Center
04:12PM 37.9078 -87.7928 49° Northeast 501 577 43,000  Level Indianapolis Center
04:13PM 38.0219 -87.6956 34° Northeast 491 565 43,000  Level Indianapolis Center
04:14PM 38.1408 -87.6103 29° Northeast 488 562 43,000  Level Indianapolis Center
04:15PM 38.2597 -87.5244 30° Northeast 488 562 43,000  Level Indianapolis Center
04:16PM 38.3792 -87.4369 30° Northeast 486 559 43,000  Level Indianapolis Center
04:17PM 38.4994 -87.3489 30° Northeast 489 563 43,000  Level Indianapolis Center
04:18PM 38.6192 -87.2608 30° Northeast 489 563 43,000  Level Indianapolis Center
04:19PM 38.7378 -87.1736 30° Northeast 486 559 43,000  Level Indianapolis Center
04:20PM 38.8564 -87.0861 30° Northeast 488 562 43,000  Level Indianapolis Center
04:21PM 38.9975 -86.9828 30° Northeast 486 559 43,000  Level Indianapolis Center
04:22PM 39.1139 -86.8964 30° Northeast 481 554 43,000 -180 Level Indianapolis Center
04:23PM 39.2308 -86.8083 30° Northeast 479 551 42,700 -840 Descending Indianapolis Center
04:24PM 39.3469 -86.7217 30° Northeast 481 554 41,300 -1,380 Descending Indianapolis Center
04:25PM 39.4669 -86.6314 30° Northeast 490 564 39,900 -1,260 Descending Indianapolis Center
04:26PM 39.5767 -86.5242 37° Northeast 499 574 38,700 -1,260 Descending Indianapolis Center
04:27PM 39.6764 -86.3989 44° Northeast 500 575 37,300 -2,280 Descending Indianapolis Center
04:29PM 39.8158 -86.2717 35° Northeast 502 578 34,100 -2,100 Descending Indianapolis Center
04:30PM 39.9147 -86.1811 35° Northeast 502 578 33,000 -540 Descending Indianapolis Center
04:31PM 40.0511 -86.0561 35° Northeast 501 577 33,000  Level Indianapolis Center
04:32PM 40.1667 -85.9506 35° Northeast 507 583 33,000 -480 Level Indianapolis Center
04:32PM 40.2350 -85.8858 36° Northeast 504 580 32,300 -1,440 Descending Chicago Center
04:33PM 40.3489 -85.7808 35° Northeast 503 579 30,700 -1,500 Descending Chicago Center
04:34PM 40.4639 -85.6750 35° Northeast 504 580 29,200 -1,500 Descending Chicago Center
04:35PM 40.5781 -85.5675 36° Northeast 506 582 27,600 -1,680 Descending Chicago Center
04:36PM 40.6894 -85.4622 36° Northeast 501 577 25,800 -1,860 Descending Chicago Center
04:37PM 40.8028 -85.3567 35° Northeast 499 574 23,800 -2,160 Descending Chicago Center
04:38PM 40.9403 -85.2217 37° Northeast 513 590 21,400 -1,380 Descending Chicago Center
04:39PM 41.0628 -85.1533 23° Northeast 490 564 21,000 -240 Descending Chicago Center
04:40PM 41.1864 -85.1078 16° North 471 542 21,000  Level Chicago Center
04:41PM 41.3078 -85.0597 17° North 462 532 21,000  Level Chicago Center
04:43PM 41.4292 -85.0136 16° North 459 528 21,000 -660 Level Chicago Center
04:44PM 41.5719 -84.9578 16° North 451 519 19,700 -1,560 Descending Chicago Center
04:45PM 41.6914 -84.9100 17° North 452 520 17,800 -1,800 Descending Chicago Center
04:46PM 41.7672 -84.7781 52° Northeast 456 525 16,000 -1,740 Descending Chicago Center
04:47PM 41.8167 -84.6250 67° East 451 519 14,200 -1,800 Descending Chicago Center
04:47PM 41.8575 -84.5061 65° Northeast 423 487 12,800 -1,800 Descending Cleveland Center
04:48PM 41.9039 -84.3611 67° East 423 487 11,100 -1,020 Descending Cleveland Center
04:49PM 41.9464 -84.2072 70° East 413 475 10,800 -600 Descending Cleveland Center
04:50PM 41.9939 -84.0897 61° Northeast 377 434 10,000 -420 Descending Cleveland Center
04:52PM 42.1125 -84.0292 21° North 405 466 10,000  Level Cleveland Center
04:52PM 42.1914 -83.9689 30° Northeast 367 422 10,000 -420 Level Cleveland Center
04:53PM 42.2522 -83.8878 45° Northeast 349 402 9,300 -1,500 Descending Cleveland Center
04:55PM 42.3169 -83.8069 43° Northeast 276 318 6,800 -1,620 Descending Cleveland Center
04:56PM 42.3775 -83.7286 44° Northeast 229 264 5,600 -900 Descending Cleveland Center
04:57PM 42.4164 -83.6769 44° Northeast 192 221 5,000 -360 Descending Cleveland Center
04:58PM 42.4575 -83.6256 43° Northeast 198 228 5,000 -300 Level Cleveland Center
04:59PM 42.5006 -83.5714 43° Northeast 204 235 4,500 -780 Descending Cleveland Center
05:00PM 42.5397 -83.5139 47° Northeast 201 231 3,500 -780 Descending Cleveland Center
05:01PM 42.5783 -83.4706 40° Northeast 200 230 3,000 -300 Descending Cleveland Center
05:02PM 42.5903 -83.4008 77° East 179 206 3,000  Level Cleveland Center
05:03PM 42.5942 -83.3331 86° East 178 205 3,000  Level Cleveland Center
05:04PM 42.6403 -83.3211 11° North 182 209 3,000 -540 Level Cleveland Center
05:05PM 42.6664 -83.3561 315° West 140 161 2,000 -1,020 Descending Cleveland Center